Terminal Aerodrome Forecast
Issued by NWS Detroit/Pontiac, MI

Home | Current Version | Previous Version | Text Only | Print | Product List | Glossary On
Versions: 1 2 3 4 5 6 7 8 9 10 11 12 13
227
FTUS43 KDTX 242320
TAFFNT
TAF
KFNT 242320Z 2500/2524 12008KT P6SM SCT250
     FM250700 11007KT P6SM BKN060
     FM251200 10007KT P6SM OVC045
     FM251500 13006KT P6SM SCT025 OVC035
     FM252100 12007KT P6SM OVC050=

USA.gov is the U.S. government's official web portal to all federal, state and local government web resources and services.